sensor_id;sensor_type;location;lat;lon;timestamp;P1;durP1;ratioP1;P2;durP2;ratioP2
7104;SDS011;3594;42.152;24.714;2022-12-18T00:01:51;19.23;;;9.27;;
7104;SDS011;3594;42.152;24.714;2022-12-18T00:04:21;20.03;;;11.40;;
7104;SDS011;3594;42.152;24.714;2022-12-18T00:06:48;18.80;;;10.30;;
7104;SDS011;3594;42.152;24.714;2022-12-18T00:09:14;19.80;;;10.70;;
7104;SDS011;3594;42.152;24.714;2022-12-18T00:11:39;19.23;;;10.32;;
7104;SDS011;3594;42.152;24.714;2022-12-18T00:14:05;18.83;;;9.27;;
7104;SDS011;3594;42.152;24.714;2022-12-18T00:16:30;17.55;;;8.98;;
7104;SDS011;3594;42.152;24.714;2022-12-18T00:18:58;14.95;;;7.85;;
7104;SDS011;3594;42.152;24.714;2022-12-18T00:21:24;21.92;;;9.52;;
7104;SDS011;3594;42.152;24.714;2022-12-18T00:23:51;19.63;;;9.15;;
7104;SDS011;3594;42.152;24.714;2022-12-18T00:26:18;13.77;;;7.90;;
7104;SDS011;3594;42.152;24.714;2022-12-18T00:28:46;19.48;;;9.07;;
7104;SDS011;3594;42.152;24.714;2022-12-18T00:31:13;16.63;;;8.60;;
7104;SDS011;3594;42.152;24.714;2022-12-18T00:33:40;14.50;;;8.23;;
7104;SDS011;3594;42.152;24.714;2022-12-18T00:36:06;18.80;;;8.70;;
7104;SDS011;3594;42.152;24.714;2022-12-18T00:38:34;13.55;;;7.07;;
7104;SDS011;3594;42.152;24.714;2022-12-18T00:41:02;20.67;;;10.02;;
7104;SDS011;3594;42.152;24.714;2022-12-18T00:43:31;16.65;;;8.25;;
7104;SDS011;3594;42.152;24.714;2022-12-18T00:45:58;15.10;;;8.07;;
7104;SDS011;3594;42.152;24.714;2022-12-18T00:48:24;16.77;;;9.00;;
7104;SDS011;3594;42.152;24.714;2022-12-18T00:50:49;15.32;;;8.70;;
7104;SDS011;3594;42.152;24.714;2022-12-18T00:53:15;22.40;;;9.88;;
7104;SDS011;3594;42.152;24.714;2022-12-18T00:55:41;20.90;;;9.27;;
7104;SDS011;3594;42.152;24.714;2022-12-18T00:58:08;17.77;;;8.95;;
7104;SDS011;3594;42.152;24.714;2022-12-18T01:00:34;15.37;;;8.63;;
7104;SDS011;3594;42.152;24.714;2022-12-18T01:03:00;21.13;;;9.43;;
7104;SDS011;3594;42.152;24.714;2022-12-18T01:05:25;17.80;;;7.90;;
7104;SDS011;3594;42.152;24.714;2022-12-18T01:07:51;19.70;;;10.30;;
7104;SDS011;3594;42.152;24.714;2022-12-18T01:10:16;13.35;;;8.27;;
7104;SDS011;3594;42.152;24.714;2022-12-18T01:12:42;20.10;;;9.40;;
7104;SDS011;3594;42.152;24.714;2022-12-18T01:15:09;14.80;;;9.18;;
7104;SDS011;3594;42.152;24.714;2022-12-18T01:17:35;16.85;;;8.20;;
7104;SDS011;3594;42.152;24.714;2022-12-18T01:20:00;15.35;;;8.73;;
7104;SDS011;3594;42.152;24.714;2022-12-18T01:22:26;16.15;;;7.85;;
7104;SDS011;3594;42.152;24.714;2022-12-18T01:24:51;16.25;;;8.70;;
7104;SDS011;3594;42.152;24.714;2022-12-18T01:27:17;17.25;;;8.25;;
7104;SDS011;3594;42.152;24.714;2022-12-18T01:29:42;16.77;;;8.23;;
7104;SDS011;3594;42.152;24.714;2022-12-18T01:32:08;11.55;;;8.05;;
7104;SDS011;3594;42.152;24.714;2022-12-18T01:34:35;17.27;;;8.30;;
7104;SDS011;3594;42.152;24.714;2022-12-18T01:37:02;15.48;;;8.88;;
7104;SDS011;3594;42.152;24.714;2022-12-18T01:39:30;17.27;;;8.52;;
7104;SDS011;3594;42.152;24.714;2022-12-18T01:42:00;17.50;;;8.88;;
7104;SDS011;3594;42.152;24.714;2022-12-18T01:47:36;17.70;;;8.10;;
7104;SDS011;3594;42.152;24.714;2022-12-18T01:52:59;14.27;;;7.82;;
7104;SDS011;3594;42.152;24.714;2022-12-18T01:55:29;15.05;;;8.35;;
7104;SDS011;3594;42.152;24.714;2022-12-18T01:57:58;13.93;;;8.45;;
7104;SDS011;3594;42.152;24.714;2022-12-18T02:00:24;15.35;;;7.43;;
7104;SDS011;3594;42.152;24.714;2022-12-18T02:02:51;16.98;;;9.15;;
7104;SDS011;3594;42.152;24.714;2022-12-18T02:05:23;15.40;;;8.70;;
7104;SDS011;3594;42.152;24.714;2022-12-18T02:11:20;14.32;;;7.35;;
7104;SDS011;3594;42.152;24.714;2022-12-18T02:17:04;19.15;;;7.35;;
7104;SDS011;3594;42.152;24.714;2022-12-18T02:22:27;18.65;;;8.13;;
7104;SDS011;3594;42.152;24.714;2022-12-18T02:27:25;11.98;;;7.43;;
7104;SDS011;3594;42.152;24.714;2022-12-18T02:29:54;13.20;;;7.43;;
7104;SDS011;3594;42.152;24.714;2022-12-18T02:32:25;14.30;;;6.55;;
7104;SDS011;3594;42.152;24.714;2022-12-18T02:34:54;12.38;;;7.18;;
7104;SDS011;3594;42.152;24.714;2022-12-18T02:37:23;11.00;;;6.93;;
7104;SDS011;3594;42.152;24.714;2022-12-18T02:39:51;15.50;;;6.55;;
7104;SDS011;3594;42.152;24.714;2022-12-18T02:42:20;12.73;;;6.95;;
7104;SDS011;3594;42.152;24.714;2022-12-18T02:44:47;9.70;;;6.22;;
7104;SDS011;3594;42.152;24.714;2022-12-18T02:47:15;12.00;;;7.43;;
7104;SDS011;3594;42.152;24.714;2022-12-18T02:49:45;17.02;;;7.20;;
7104;SDS011;3594;42.152;24.714;2022-12-18T02:58:00;13.65;;;6.95;;
7104;SDS011;3594;42.152;24.714;2022-12-18T03:00:32;13.27;;;7.68;;
7104;SDS011;3594;42.152;24.714;2022-12-18T03:03:27;15.38;;;7.03;;
7104;SDS011;3594;42.152;24.714;2022-12-18T03:06:04;16.05;;;8.13;;
7104;SDS011;3594;42.152;24.714;2022-12-18T03:08:36;13.38;;;6.68;;
7104;SDS011;3594;42.152;24.714;2022-12-18T03:11:08;10.95;;;6.60;;
7104;SDS011;3594;42.152;24.714;2022-12-18T03:16:07;11.30;;;5.97;;
7104;SDS011;3594;42.152;24.714;2022-12-18T03:18:37;14.73;;;7.57;;
7104;SDS011;3594;42.152;24.714;2022-12-18T03:21:08;12.13;;;6.25;;
7104;SDS011;3594;42.152;24.714;2022-12-18T03:23:40;13.13;;;6.28;;
7104;SDS011;3594;42.152;24.714;2022-12-18T03:26:10;8.23;;;5.40;;
7104;SDS011;3594;42.152;24.714;2022-12-18T03:28:42;10.15;;;5.85;;
7104;SDS011;3594;42.152;24.714;2022-12-18T03:31:12;10.13;;;5.43;;
7104;SDS011;3594;42.152;24.714;2022-12-18T03:36:15;8.27;;;5.35;;
7104;SDS011;3594;42.152;24.714;2022-12-18T03:38:41;7.28;;;4.75;;
7104;SDS011;3594;42.152;24.714;2022-12-18T03:41:10;15.90;;;5.53;;
7104;SDS011;3594;42.152;24.714;2022-12-18T03:49:28;11.90;;;4.68;;
7104;SDS011;3594;42.152;24.714;2022-12-18T03:52:09;7.35;;;4.32;;
7104;SDS011;3594;42.152;24.714;2022-12-18T03:54:39;6.63;;;4.05;;
7104;SDS011;3594;42.152;24.714;2022-12-18T03:57:11;8.40;;;4.78;;
7104;SDS011;3594;42.152;24.714;2022-12-18T03:59:42;7.22;;;5.03;;
7104;SDS011;3594;42.152;24.714;2022-12-18T04:02:09;4.95;;;4.13;;
7104;SDS011;3594;42.152;24.714;2022-12-18T04:04:38;8.30;;;5.30;;
7104;SDS011;3594;42.152;24.714;2022-12-18T04:07:05;13.38;;;5.68;;
7104;SDS011;3594;42.152;24.714;2022-12-18T04:09:32;10.80;;;5.25;;
7104;SDS011;3594;42.152;24.714;2022-12-18T04:11:59;5.95;;;4.43;;
7104;SDS011;3594;42.152;24.714;2022-12-18T04:14:24;8.40;;;4.88;;
7104;SDS011;3594;42.152;24.714;2022-12-18T04:16:50;9.07;;;4.65;;
7104;SDS011;3594;42.152;24.714;2022-12-18T04:19:15;6.55;;;4.00;;
7104;SDS011;3594;42.152;24.714;2022-12-18T04:21:41;10.75;;;5.50;;
7104;SDS011;3594;42.152;24.714;2022-12-18T04:24:06;7.95;;;4.35;;
7104;SDS011;3594;42.152;24.714;2022-12-18T04:26:32;8.65;;;5.05;;
7104;SDS011;3594;42.152;24.714;2022-12-18T04:28:57;7.93;;;4.25;;
7104;SDS011;3594;42.152;24.714;2022-12-18T04:31:23;7.25;;;4.22;;
7104;SDS011;3594;42.152;24.714;2022-12-18T04:33:48;6.30;;;4.43;;
7104;SDS011;3594;42.152;24.714;2022-12-18T04:36:14;6.10;;;3.72;;
7104;SDS011;3594;42.152;24.714;2022-12-18T04:38:39;6.07;;;3.92;;
7104;SDS011;3594;42.152;24.714;2022-12-18T04:41:04;6.55;;;3.50;;
7104;SDS011;3594;42.152;24.714;2022-12-18T04:43:30;5.93;;;3.65;;
7104;SDS011;3594;42.152;24.714;2022-12-18T04:46:04;5.68;;;3.20;;
7104;SDS011;3594;42.152;24.714;2022-12-18T04:48:30;4.97;;;3.17;;
7104;SDS011;3594;42.152;24.714;2022-12-18T04:50:56;5.78;;;3.38;;
7104;SDS011;3594;42.152;24.714;2022-12-18T04:53:21;6.75;;;3.40;;
7104;SDS011;3594;42.152;24.714;2022-12-18T04:55:47;3.53;;;2.85;;
7104;SDS011;3594;42.152;24.714;2022-12-18T04:58:12;3.13;;;2.35;;
7104;SDS011;3594;42.152;24.714;2022-12-18T05:00:38;3.72;;;2.75;;
7104;SDS011;3594;42.152;24.714;2022-12-18T05:03:03;3.50;;;2.47;;
7104;SDS011;3594;42.152;24.714;2022-12-18T05:05:28;4.88;;;2.90;;
7104;SDS011;3594;42.152;24.714;2022-12-18T05:07:54;2.65;;;2.38;;
7104;SDS011;3594;42.152;24.714;2022-12-18T05:10:19;3.15;;;2.42;;
7104;SDS011;3594;42.152;24.714;2022-12-18T05:12:45;2.92;;;2.53;;
7104;SDS011;3594;42.152;24.714;2022-12-18T05:15:29;3.85;;;3.05;;
7104;SDS011;3594;42.152;24.714;2022-12-18T05:17:56;4.13;;;2.88;;
7104;SDS011;3594;42.152;24.714;2022-12-18T05:20:22;3.55;;;2.53;;
7104;SDS011;3594;42.152;24.714;2022-12-18T05:22:48;3.05;;;2.28;;
7104;SDS011;3594;42.152;24.714;2022-12-18T05:25:14;5.03;;;3.10;;
7104;SDS011;3594;42.152;24.714;2022-12-18T05:27:40;3.50;;;3.17;;
7104;SDS011;3594;42.152;24.714;2022-12-18T05:30:06;5.47;;;3.10;;
7104;SDS011;3594;42.152;24.714;2022-12-18T05:32:31;3.92;;;2.75;;
7104;SDS011;3594;42.152;24.714;2022-12-18T05:34:57;5.00;;;3.20;;
7104;SDS011;3594;42.152;24.714;2022-12-18T05:37:22;5.75;;;2.95;;
7104;SDS011;3594;42.152;24.714;2022-12-18T05:39:48;4.53;;;3.30;;
7104;SDS011;3594;42.152;24.714;2022-12-18T05:42:13;5.78;;;3.30;;
7104;SDS011;3594;42.152;24.714;2022-12-18T05:44:39;4.50;;;3.17;;
7104;SDS011;3594;42.152;24.714;2022-12-18T05:47:04;4.10;;;2.63;;
7104;SDS011;3594;42.152;24.714;2022-12-18T05:49:30;3.25;;;2.63;;
7104;SDS011;3594;42.152;24.714;2022-12-18T05:51:55;3.78;;;2.75;;
7104;SDS011;3594;42.152;24.714;2022-12-18T05:54:22;3.63;;;2.28;;
7104;SDS011;3594;42.152;24.714;2022-12-18T05:56:47;5.15;;;2.95;;
7104;SDS011;3594;42.152;24.714;2022-12-18T05:59:12;4.00;;;3.40;;
7104;SDS011;3594;42.152;24.714;2022-12-18T06:01:38;4.28;;;2.92;;
7104;SDS011;3594;42.152;24.714;2022-12-18T06:04:03;3.33;;;2.60;;
7104;SDS011;3594;42.152;24.714;2022-12-18T06:06:29;3.55;;;2.70;;
7104;SDS011;3594;42.152;24.714;2022-12-18T06:08:55;5.10;;;3.20;;
7104;SDS011;3594;42.152;24.714;2022-12-18T06:11:23;4.00;;;2.92;;
7104;SDS011;3594;42.152;24.714;2022-12-18T06:13:51;5.28;;;3.13;;
7104;SDS011;3594;42.152;24.714;2022-12-18T06:16:18;4.35;;;3.03;;
7104;SDS011;3594;42.152;24.714;2022-12-18T06:18:43;5.95;;;3.38;;
7104;SDS011;3594;42.152;24.714;2022-12-18T06:21:09;3.95;;;2.60;;
7104;SDS011;3594;42.152;24.714;2022-12-18T06:23:34;5.13;;;3.10;;
7104;SDS011;3594;42.152;24.714;2022-12-18T06:26:07;3.72;;;2.80;;
7104;SDS011;3594;42.152;24.714;2022-12-18T06:28:34;4.00;;;2.80;;
7104;SDS011;3594;42.152;24.714;2022-12-18T06:31:00;4.50;;;2.90;;
7104;SDS011;3594;42.152;24.714;2022-12-18T06:33:27;3.87;;;2.77;;
7104;SDS011;3594;42.152;24.714;2022-12-18T06:35:53;7.13;;;2.20;;
7104;SDS011;3594;42.152;24.714;2022-12-18T06:38:19;4.30;;;2.97;;
7104;SDS011;3594;42.152;24.714;2022-12-18T06:40:45;4.70;;;2.47;;
7104;SDS011;3594;42.152;24.714;2022-12-18T06:43:10;4.35;;;2.63;;
7104;SDS011;3594;42.152;24.714;2022-12-18T06:45:35;3.83;;;3.00;;
7104;SDS011;3594;42.152;24.714;2022-12-18T06:48:01;4.23;;;2.50;;
7104;SDS011;3594;42.152;24.714;2022-12-18T06:50:26;5.10;;;3.63;;
7104;SDS011;3594;42.152;24.714;2022-12-18T06:52:52;3.80;;;2.65;;
7104;SDS011;3594;42.152;24.714;2022-12-18T06:55:17;3.93;;;2.37;;
7104;SDS011;3594;42.152;24.714;2022-12-18T06:57:43;4.63;;;2.40;;
7104;SDS011;3594;42.152;24.714;2022-12-18T07:00:09;4.70;;;3.37;;
7104;SDS011;3594;42.152;24.714;2022-12-18T07:02:35;4.30;;;2.92;;
7104;SDS011;3594;42.152;24.714;2022-12-18T07:05:00;3.27;;;2.73;;
7104;SDS011;3594;42.152;24.714;2022-12-18T07:07:26;5.38;;;3.45;;
7104;SDS011;3594;42.152;24.714;2022-12-18T07:09:51;5.55;;;3.38;;
7104;SDS011;3594;42.152;24.714;2022-12-18T07:12:17;5.80;;;2.88;;
7104;SDS011;3594;42.152;24.714;2022-12-18T07:14:43;7.63;;;3.20;;
7104;SDS011;3594;42.152;24.714;2022-12-18T07:17:09;4.25;;;2.85;;
7104;SDS011;3594;42.152;24.714;2022-12-18T07:19:34;5.07;;;3.05;;
7104;SDS011;3594;42.152;24.714;2022-12-18T07:22:00;2.58;;;2.35;;
7104;SDS011;3594;42.152;24.714;2022-12-18T07:24:26;4.20;;;2.85;;
7104;SDS011;3594;42.152;24.714;2022-12-18T07:26:51;5.18;;;3.00;;
7104;SDS011;3594;42.152;24.714;2022-12-18T07:29:17;5.43;;;3.60;;
7104;SDS011;3594;42.152;24.714;2022-12-18T07:31:42;5.25;;;3.47;;
7104;SDS011;3594;42.152;24.714;2022-12-18T07:34:12;7.40;;;3.30;;
7104;SDS011;3594;42.152;24.714;2022-12-18T07:36:39;4.72;;;2.95;;
7104;SDS011;3594;42.152;24.714;2022-12-18T07:39:06;4.45;;;2.75;;
7104;SDS011;3594;42.152;24.714;2022-12-18T07:41:31;3.85;;;2.75;;
7104;SDS011;3594;42.152;24.714;2022-12-18T07:43:57;5.20;;;3.25;;
7104;SDS011;3594;42.152;24.714;2022-12-18T07:46:23;5.47;;;2.97;;
7104;SDS011;3594;42.152;24.714;2022-12-18T07:48:48;5.78;;;2.80;;
7104;SDS011;3594;42.152;24.714;2022-12-18T07:51:14;5.75;;;3.47;;
7104;SDS011;3594;42.152;24.714;2022-12-18T07:53:40;4.20;;;2.75;;
7104;SDS011;3594;42.152;24.714;2022-12-18T07:56:07;4.25;;;2.83;;
7104;SDS011;3594;42.152;24.714;2022-12-18T07:58:34;7.65;;;3.40;;
7104;SDS011;3594;42.152;24.714;2022-12-18T08:01:06;4.47;;;3.17;;
7104;SDS011;3594;42.152;24.714;2022-12-18T08:03:33;5.72;;;3.17;;
7104;SDS011;3594;42.152;24.714;2022-12-18T08:06:02;5.00;;;3.13;;
7104;SDS011;3594;42.152;24.714;2022-12-18T08:08:30;4.68;;;2.90;;
7104;SDS011;3594;42.152;24.714;2022-12-18T08:10:56;5.68;;;3.60;;
7104;SDS011;3594;42.152;24.714;2022-12-18T08:13:22;5.68;;;3.33;;
7104;SDS011;3594;42.152;24.714;2022-12-18T08:15:55;13.30;;;4.00;;
7104;SDS011;3594;42.152;24.714;2022-12-18T08:18:24;6.47;;;3.50;;
7104;SDS011;3594;42.152;24.714;2022-12-18T08:20:50;6.38;;;3.28;;
7104;SDS011;3594;42.152;24.714;2022-12-18T08:23:16;6.40;;;4.53;;
7104;SDS011;3594;42.152;24.714;2022-12-18T08:25:41;5.72;;;3.13;;
7104;SDS011;3594;42.152;24.714;2022-12-18T08:28:06;6.10;;;3.33;;
7104;SDS011;3594;42.152;24.714;2022-12-18T08:30:32;6.78;;;3.92;;
7104;SDS011;3594;42.152;24.714;2022-12-18T08:32:57;7.70;;;4.10;;
7104;SDS011;3594;42.152;24.714;2022-12-18T08:35:23;4.25;;;3.15;;
7104;SDS011;3594;42.152;24.714;2022-12-18T08:37:48;4.50;;;2.97;;
7104;SDS011;3594;42.152;24.714;2022-12-18T08:40:14;6.30;;;3.65;;
7104;SDS011;3594;42.152;24.714;2022-12-18T08:42:40;8.80;;;3.55;;
7104;SDS011;3594;42.152;24.714;2022-12-18T08:45:23;3.72;;;2.83;;
7104;SDS011;3594;42.152;24.714;2022-12-18T08:47:49;5.32;;;3.20;;
7104;SDS011;3594;42.152;24.714;2022-12-18T08:50:15;3.80;;;2.85;;
7104;SDS011;3594;42.152;24.714;2022-12-18T08:52:41;7.10;;;3.38;;
7104;SDS011;3594;42.152;24.714;2022-12-18T08:55:06;7.38;;;3.97;;
7104;SDS011;3594;42.152;24.714;2022-12-18T08:57:33;6.97;;;3.80;;
7104;SDS011;3594;42.152;24.714;2022-12-18T08:59:58;5.38;;;3.65;;
7104;SDS011;3594;42.152;24.714;2022-12-18T09:02:24;5.35;;;3.33;;
7104;SDS011;3594;42.152;24.714;2022-12-18T09:04:49;5.20;;;3.20;;
7104;SDS011;3594;42.152;24.714;2022-12-18T09:07:15;4.78;;;3.30;;
7104;SDS011;3594;42.152;24.714;2022-12-18T09:09:40;3.97;;;3.47;;
7104;SDS011;3594;42.152;24.714;2022-12-18T09:12:06;5.85;;;3.50;;
7104;SDS011;3594;42.152;24.714;2022-12-18T09:14:31;4.95;;;3.47;;
7104;SDS011;3594;42.152;24.714;2022-12-18T09:16:57;5.65;;;3.38;;
7104;SDS011;3594;42.152;24.714;2022-12-18T09:19:22;5.60;;;3.30;;
7104;SDS011;3594;42.152;24.714;2022-12-18T09:21:47;4.38;;;2.80;;
7104;SDS011;3594;42.152;24.714;2022-12-18T09:24:13;7.68;;;4.03;;
7104;SDS011;3594;42.152;24.714;2022-12-18T09:26:39;5.18;;;3.13;;
7104;SDS011;3594;42.152;24.714;2022-12-18T09:29:05;5.13;;;3.33;;
7104;SDS011;3594;42.152;24.714;2022-12-18T09:31:32;6.22;;;4.13;;
7104;SDS011;3594;42.152;24.714;2022-12-18T09:33:58;7.32;;;4.03;;
7104;SDS011;3594;42.152;24.714;2022-12-18T09:36:23;6.97;;;3.60;;
7104;SDS011;3594;42.152;24.714;2022-12-18T09:38:49;7.30;;;3.90;;
7104;SDS011;3594;42.152;24.714;2022-12-18T09:44:00;4.32;;;3.22;;
7104;SDS011;3594;42.152;24.714;2022-12-18T09:46:35;9.13;;;3.60;;
7104;SDS011;3594;42.152;24.714;2022-12-18T09:49:06;9.73;;;4.00;;
7104;SDS011;3594;42.152;24.714;2022-12-18T09:51:37;6.78;;;3.80;;
7104;SDS011;3594;42.152;24.714;2022-12-18T09:54:12;7.55;;;3.72;;
7104;SDS011;3594;42.152;24.714;2022-12-18T09:56:42;4.90;;;3.30;;
7104;SDS011;3594;42.152;24.714;2022-12-18T09:59:19;6.28;;;3.63;;
7104;SDS011;3594;42.152;24.714;2022-12-18T10:01:49;6.50;;;3.13;;
7104;SDS011;3594;42.152;24.714;2022-12-18T10:04:14;7.13;;;3.72;;
7104;SDS011;3594;42.152;24.714;2022-12-18T10:09:38;4.97;;;3.33;;
7104;SDS011;3594;42.152;24.714;2022-12-18T10:14:59;6.50;;;3.35;;
7104;SDS011;3594;42.152;24.714;2022-12-18T10:22:49;4.55;;;3.38;;
7104;SDS011;3594;42.152;24.714;2022-12-18T10:28:21;3.75;;;2.78;;
7104;SDS011;3594;42.152;24.714;2022-12-18T10:30:48;5.25;;;3.28;;
7104;SDS011;3594;42.152;24.714;2022-12-18T10:33:21;4.38;;;3.08;;
7104;SDS011;3594;42.152;24.714;2022-12-18T10:35:51;5.55;;;3.20;;
7104;SDS011;3594;42.152;24.714;2022-12-18T10:40:53;7.53;;;3.70;;
7104;SDS011;3594;42.152;24.714;2022-12-18T10:43:31;7.30;;;3.72;;
7104;SDS011;3594;42.152;24.714;2022-12-18T10:46:05;5.72;;;3.17;;
7104;SDS011;3594;42.152;24.714;2022-12-18T10:53:59;4.60;;;2.97;;
7104;SDS011;3594;42.152;24.714;2022-12-18T10:56:30;4.97;;;3.20;;
7104;SDS011;3594;42.152;24.714;2022-12-18T11:01:24;4.10;;;3.03;;
7104;SDS011;3594;42.152;24.714;2022-12-18T11:06:23;4.70;;;2.78;;
7104;SDS011;3594;42.152;24.714;2022-12-18T11:11:26;5.03;;;3.10;;
7104;SDS011;3594;42.152;24.714;2022-12-18T11:14:05;5.82;;;3.25;;
7104;SDS011;3594;42.152;24.714;2022-12-18T11:16:42;7.18;;;2.95;;
7104;SDS011;3594;42.152;24.714;2022-12-18T11:19:20;5.93;;;3.53;;
7104;SDS011;3594;42.152;24.714;2022-12-18T11:21:52;5.82;;;3.20;;
7104;SDS011;3594;42.152;24.714;2022-12-18T11:24:26;5.50;;;3.75;;
7104;SDS011;3594;42.152;24.714;2022-12-18T11:27:00;7.68;;;3.90;;
7104;SDS011;3594;42.152;24.714;2022-12-18T11:29:32;7.80;;;3.78;;
7104;SDS011;3594;42.152;24.714;2022-12-18T11:34:44;5.13;;;3.10;;
7104;SDS011;3594;42.152;24.714;2022-12-18T11:37:14;6.83;;;3.47;;
7104;SDS011;3594;42.152;24.714;2022-12-18T11:39:51;4.57;;;3.33;;
7104;SDS011;3594;42.152;24.714;2022-12-18T11:42:24;7.03;;;3.50;;
7104;SDS011;3594;42.152;24.714;2022-12-18T11:45:34;6.77;;;3.93;;
7104;SDS011;3594;42.152;24.714;2022-12-18T11:50:58;7.27;;;3.20;;
7104;SDS011;3594;42.152;24.714;2022-12-18T11:53:28;14.97;;;3.70;;
7104;SDS011;3594;42.152;24.714;2022-12-18T11:59:13;7.60;;;3.70;;
7104;SDS011;3594;42.152;24.714;2022-12-18T12:02:03;5.83;;;3.77;;
7104;SDS011;3594;42.152;24.714;2022-12-18T12:07:25;5.83;;;3.23;;
7104;SDS011;3594;42.152;24.714;2022-12-18T12:12:58;5.30;;;3.17;;
7104;SDS011;3594;42.152;24.714;2022-12-18T12:15:40;6.80;;;3.43;;
7104;SDS011;3594;42.152;24.714;2022-12-18T12:21:05;5.82;;;3.08;;
7104;SDS011;3594;42.152;24.714;2022-12-18T12:23:44;5.63;;;3.35;;
7104;SDS011;3594;42.152;24.714;2022-12-18T12:32:07;7.05;;;4.28;;
7104;SDS011;3594;42.152;24.714;2022-12-18T12:40:34;5.93;;;3.58;;
7104;SDS011;3594;42.152;24.714;2022-12-18T12:46:02;6.53;;;3.95;;
7104;SDS011;3594;42.152;24.714;2022-12-18T12:53:46;11.27;;;4.28;;
7104;SDS011;3594;42.152;24.714;2022-12-18T12:56:14;5.90;;;3.30;;
7104;SDS011;3594;42.152;24.714;2022-12-18T13:01:16;7.67;;;3.83;;
7104;SDS011;3594;42.152;24.714;2022-12-18T13:03:54;6.67;;;3.80;;
7104;SDS011;3594;42.152;24.714;2022-12-18T13:09:23;7.67;;;4.07;;
7104;SDS011;3594;42.152;24.714;2022-12-18T13:11:49;6.97;;;4.30;;
7104;SDS011;3594;42.152;24.714;2022-12-18T13:14:34;9.17;;;3.83;;
7104;SDS011;3594;42.152;24.714;2022-12-18T13:17:14;8.67;;;3.80;;
7104;SDS011;3594;42.152;24.714;2022-12-18T13:19:42;5.00;;;3.72;;
7104;SDS011;3594;42.152;24.714;2022-12-18T13:22:21;7.93;;;4.65;;
7104;SDS011;3594;42.152;24.714;2022-12-18T13:24:48;7.00;;;4.13;;
7104;SDS011;3594;42.152;24.714;2022-12-18T13:35:38;5.88;;;4.05;;
7104;SDS011;3594;42.152;24.714;2022-12-18T13:41:04;6.35;;;3.55;;
7104;SDS011;3594;42.152;24.714;2022-12-18T13:43:47;7.28;;;4.40;;
7104;SDS011;3594;42.152;24.714;2022-12-18T13:46:42;4.87;;;3.03;;
7104;SDS011;3594;42.152;24.714;2022-12-18T13:51:39;6.03;;;3.50;;
7104;SDS011;3594;42.152;24.714;2022-12-18T13:54:44;7.90;;;3.85;;
7104;SDS011;3594;42.152;24.714;2022-12-18T13:57:26;5.75;;;3.40;;
7104;SDS011;3594;42.152;24.714;2022-12-18T14:00:17;4.55;;;3.25;;
7104;SDS011;3594;42.152;24.714;2022-12-18T14:02:50;7.00;;;4.07;;
7104;SDS011;3594;42.152;24.714;2022-12-18T14:05:23;7.72;;;3.70;;
7104;SDS011;3594;42.152;24.714;2022-12-18T14:07:48;6.15;;;3.67;;
7104;SDS011;3594;42.152;24.714;2022-12-18T14:10:14;8.10;;;3.90;;
7104;SDS011;3594;42.152;24.714;2022-12-18T14:12:44;9.30;;;3.90;;
7104;SDS011;3594;42.152;24.714;2022-12-18T14:18:01;7.45;;;4.20;;
7104;SDS011;3594;42.152;24.714;2022-12-18T14:20:39;6.75;;;3.83;;
7104;SDS011;3594;42.152;24.714;2022-12-18T14:23:27;7.35;;;3.53;;
7104;SDS011;3594;42.152;24.714;2022-12-18T14:32:10;6.72;;;3.25;;
7104;SDS011;3594;42.152;24.714;2022-12-18T14:34:44;9.35;;;4.05;;
7104;SDS011;3594;42.152;24.714;2022-12-18T14:37:16;10.30;;;4.20;;
7104;SDS011;3594;42.152;24.714;2022-12-18T14:39:53;10.43;;;4.60;;
7104;SDS011;3594;42.152;24.714;2022-12-18T14:42:26;10.07;;;4.85;;
7104;SDS011;3594;42.152;24.714;2022-12-18T14:50:37;11.00;;;4.45;;
7104;SDS011;3594;42.152;24.714;2022-12-18T14:53:03;9.15;;;4.88;;
7104;SDS011;3594;42.152;24.714;2022-12-18T14:55:32;7.80;;;4.10;;
7104;SDS011;3594;42.152;24.714;2022-12-18T14:57:57;8.60;;;4.25;;
7104;SDS011;3594;42.152;24.714;2022-12-18T15:00:24;9.00;;;4.65;;
7104;SDS011;3594;42.152;24.714;2022-12-18T15:02:52;8.57;;;4.20;;
7104;SDS011;3594;42.152;24.714;2022-12-18T15:05:29;7.60;;;4.30;;
7104;SDS011;3594;42.152;24.714;2022-12-18T15:07:57;6.90;;;3.97;;
7104;SDS011;3594;42.152;24.714;2022-12-18T15:18:03;6.93;;;4.47;;
7104;SDS011;3594;42.152;24.714;2022-12-18T15:20:42;7.70;;;3.80;;
7104;SDS011;3594;42.152;24.714;2022-12-18T15:23:23;7.10;;;4.07;;
7104;SDS011;3594;42.152;24.714;2022-12-18T15:25:54;8.30;;;4.75;;
7104;SDS011;3594;42.152;24.714;2022-12-18T15:28:35;7.40;;;4.20;;
7104;SDS011;3594;42.152;24.714;2022-12-18T15:31:22;9.88;;;3.72;;
7104;SDS011;3594;42.152;24.714;2022-12-18T15:36:23;9.65;;;4.55;;
7104;SDS011;3594;42.152;24.714;2022-12-18T15:38:49;7.93;;;4.70;;
7104;SDS011;3594;42.152;24.714;2022-12-18T15:41:16;7.15;;;4.93;;
7104;SDS011;3594;42.152;24.714;2022-12-18T15:43:43;11.80;;;4.38;;
7104;SDS011;3594;42.152;24.714;2022-12-18T15:46:13;11.15;;;5.15;;
7104;SDS011;3594;42.152;24.714;2022-12-18T15:48:50;10.80;;;4.72;;
7104;SDS011;3594;42.152;24.714;2022-12-18T15:51:27;13.18;;;5.13;;
7104;SDS011;3594;42.152;24.714;2022-12-18T15:53:56;9.85;;;5.20;;
7104;SDS011;3594;42.152;24.714;2022-12-18T15:56:24;9.10;;;5.07;;
7104;SDS011;3594;42.152;24.714;2022-12-18T15:59:12;9.82;;;6.07;;
7104;SDS011;3594;42.152;24.714;2022-12-18T16:01:39;10.18;;;4.72;;
7104;SDS011;3594;42.152;24.714;2022-12-18T16:04:06;9.13;;;5.13;;
7104;SDS011;3594;42.152;24.714;2022-12-18T16:06:31;9.50;;;5.40;;
7104;SDS011;3594;42.152;24.714;2022-12-18T16:08:57;9.18;;;5.03;;
7104;SDS011;3594;42.152;24.714;2022-12-18T16:11:26;10.65;;;5.72;;
7104;SDS011;3594;42.152;24.714;2022-12-18T16:16:41;8.48;;;5.45;;
7104;SDS011;3594;42.152;24.714;2022-12-18T16:19:06;8.57;;;4.38;;
7104;SDS011;3594;42.152;24.714;2022-12-18T16:21:32;8.55;;;4.40;;
7104;SDS011;3594;42.152;24.714;2022-12-18T16:23:57;12.30;;;4.88;;
7104;SDS011;3594;42.152;24.714;2022-12-18T16:26:23;5.32;;;4.15;;
7104;SDS011;3594;42.152;24.714;2022-12-18T16:28:48;12.40;;;5.55;;
7104;SDS011;3594;42.152;24.714;2022-12-18T16:31:14;7.93;;;4.88;;
7104;SDS011;3594;42.152;24.714;2022-12-18T16:33:39;8.60;;;4.85;;
7104;SDS011;3594;42.152;24.714;2022-12-18T16:36:05;8.95;;;4.60;;
7104;SDS011;3594;42.152;24.714;2022-12-18T16:38:31;8.43;;;5.15;;
7104;SDS011;3594;42.152;24.714;2022-12-18T16:40:56;7.03;;;4.90;;
7104;SDS011;3594;42.152;24.714;2022-12-18T16:43:40;9.55;;;5.20;;
7104;SDS011;3594;42.152;24.714;2022-12-18T16:46:05;11.48;;;4.72;;
7104;SDS011;3594;42.152;24.714;2022-12-18T16:48:34;8.57;;;5.20;;
7104;SDS011;3594;42.152;24.714;2022-12-18T16:51:01;10.00;;;4.55;;
7104;SDS011;3594;42.152;24.714;2022-12-18T16:53:28;6.40;;;4.25;;
7104;SDS011;3594;42.152;24.714;2022-12-18T16:55:54;9.93;;;4.57;;
7104;SDS011;3594;42.152;24.714;2022-12-18T16:58:20;13.10;;;5.90;;
7104;SDS011;3594;42.152;24.714;2022-12-18T17:00:45;7.50;;;4.70;;
7104;SDS011;3594;42.152;24.714;2022-12-18T17:03:10;8.50;;;4.70;;
7104;SDS011;3594;42.152;24.714;2022-12-18T17:05:36;7.73;;;4.50;;
7104;SDS011;3594;42.152;24.714;2022-12-18T17:08:01;6.63;;;4.83;;
7104;SDS011;3594;42.152;24.714;2022-12-18T17:10:27;10.20;;;5.40;;
7104;SDS011;3594;42.152;24.714;2022-12-18T17:12:52;7.83;;;4.77;;
7104;SDS011;3594;42.152;24.714;2022-12-18T17:15:17;8.37;;;5.67;;
7104;SDS011;3594;42.152;24.714;2022-12-18T17:17:43;12.13;;;5.63;;
7104;SDS011;3594;42.152;24.714;2022-12-18T17:20:08;7.70;;;4.20;;
7104;SDS011;3594;42.152;24.714;2022-12-18T17:22:34;13.10;;;5.40;;
7104;SDS011;3594;42.152;24.714;2022-12-18T17:24:59;10.13;;;4.67;;
7104;SDS011;3594;42.152;24.714;2022-12-18T17:27:24;7.27;;;5.03;;
7104;SDS011;3594;42.152;24.714;2022-12-18T17:29:50;10.67;;;4.60;;
7104;SDS011;3594;42.152;24.714;2022-12-18T17:32:15;10.40;;;4.80;;
7104;SDS011;3594;42.152;24.714;2022-12-18T17:34:42;7.73;;;4.37;;
7104;SDS011;3594;42.152;24.714;2022-12-18T17:37:07;10.77;;;5.33;;
7104;SDS011;3594;42.152;24.714;2022-12-18T17:39:33;5.57;;;4.47;;